Time;durP1;ratioP1;P1;durP2;ratioP2;P2;SDS_P1;SDS_P2;PMS_P1;PMS_P2;Temp;Humidity;BMP_temperature;BMP_pressure;BME280_temperature;BME280_humidity;BME280_pressure;Samples;Min_cycle;Max_cycle;Signal;HPM_P1;HPM_P2
2023/05/28 00:00:42;;;;;;;9.00;1.88;;;10.50;99.90;;;;;;5057305;28;20055;-84
2023/05/28 00:03:08;;;;;;;6.93;1.88;;;10.50;99.90;;;;;;5075381;28;20032;-81
2023/05/28 00:05:34;;;;;;;4.10;1.73;;;10.60;99.90;;;;;;5057301;28;20044;-82
2023/05/28 00:08:00;;;;;;;6.43;1.35;;;10.40;99.90;;;;;;5075307;28;20625;-83
2023/05/28 00:10:26;;;;;;;4.53;1.83;;;10.80;99.90;;;;;;5075325;28;20090;-84
2023/05/28 00:12:52;;;;;;;5.93;1.42;;;10.40;99.90;;;;;;5075647;28;20037;-85
2023/05/28 00:15:17;;;;;;;5.53;1.60;;;10.40;99.90;;;;;;5088259;28;20079;-81
2023/05/28 00:17:43;;;;;;;8.48;1.75;;;10.40;99.90;;;;;;5095378;28;20545;-81
2023/05/28 00:20:10;;;;;;;6.32;1.55;;;10.40;99.90;;;;;;5086325;28;20040;-82
2023/05/28 00:22:35;;;;;;;4.32;1.60;;;10.40;99.90;;;;;;5074691;28;20105;-83
2023/05/28 00:25:01;;;;;;;5.22;1.58;;;10.40;99.90;;;;;;5067788;28;20036;-82
2023/05/28 00:27:27;;;;;;;3.88;1.20;;;10.60;99.90;;;;;;5094949;28;20040;-83
2023/05/28 00:29:53;;;;;;;3.50;1.35;;;10.80;99.90;;;;;;5094670;28;20052;-80
2023/05/28 00:32:18;;;;;;;8.38;1.88;;;10.40;99.90;;;;;;5077063;28;20396;-82
2023/05/28 00:34:44;;;;;;;7.60;2.03;;;10.40;99.90;;;;;;5093980;28;20515;-81
2023/05/28 00:37:10;;;;;;;6.55;1.85;;;10.70;99.90;;;;;;5088657;28;20044;-83
2023/05/28 00:39:36;;;;;;;6.32;2.00;;;10.40;99.90;;;;;;5074749;28;20501;-82
2023/05/28 00:42:03;;;;;;;7.95;1.52;;;10.50;99.90;;;;;;5074462;28;20459;-83
2023/05/28 00:44:33;;;;;;;6.80;1.90;;;10.50;99.90;;;;;;5074469;28;20126;-83
2023/05/28 00:47:00;;;;;;;3.38;1.30;;;10.50;99.90;;;;;;5056379;28;20044;-81
2023/05/28 00:49:26;;;;;;;3.30;1.33;;;10.50;99.90;;;;;;5074295;28;20032;-81
2023/05/28 00:51:54;;;;;;;4.50;1.38;;;10.80;99.90;;;;;;5065264;28;20068;-80
2023/05/28 00:54:20;;;;;;;5.57;1.60;;;10.60;99.90;;;;;;5079764;28;20044;-82
2023/05/28 00:56:46;;;;;;;7.30;1.52;;;10.50;99.90;;;;;;5074117;28;20493;-81
2023/05/28 00:59:12;;;;;;;7.40;1.80;;;10.60;99.90;;;;;;5074032;28;20116;-81
2023/05/28 01:01:39;;;;;;;5.03;1.42;;;10.60;99.90;;;;;;5073203;28;20225;-83
2023/05/28 01:04:05;;;;;;;8.00;1.65;;;10.50;99.90;;;;;;5073913;28;20470;-82
2023/05/28 01:06:31;;;;;;;5.57;1.33;;;10.50;99.90;;;;;;5074417;28;20083;-81
2023/05/28 01:08:57;;;;;;;4.72;1.50;;;10.60;99.90;;;;;;5094305;28;20043;-82
2023/05/28 01:11:23;;;;;;;6.80;2.15;;;10.50;99.90;;;;;;5093973;28;20399;-81
2023/05/28 01:13:50;;;;;;;4.32;1.23;;;10.60;99.90;;;;;;5075997;28;20074;-82
2023/05/28 01:16:16;;;;;;;3.90;1.65;;;10.60;99.90;;;;;;5093825;28;20481;-81
2023/05/28 01:18:44;;;;;;;4.75;1.60;;;10.50;99.90;;;;;;5093970;28;20052;-81
2023/05/28 01:21:11;;;;;;;6.15;1.88;;;10.50;99.90;;;;;;5090520;28;20066;-82
2023/05/28 01:23:47;;;;;;;5.32;1.70;;;10.40;99.90;;;;;;5093672;28;20048;-81
2023/05/28 01:26:14;;;;;;;6.15;1.63;;;10.40;99.90;;;;;;5075619;28;20055;-81
2023/05/28 01:28:46;;;;;;;5.93;1.52;;;10.40;99.90;;;;;;5084269;28;20089;-82
2023/05/28 01:31:13;;;;;;;8.05;1.63;;;10.70;99.90;;;;;;5073549;28;20093;-82
2023/05/28 01:33:43;;;;;;;4.82;1.70;;;10.50;99.90;;;;;;5068209;28;20048;-81
2023/05/28 01:36:26;;;;;;;8.77;1.90;;;10.50;99.90;;;;;;5093493;28;20500;-80
2023/05/28 01:38:59;;;;;;;8.18;1.88;;;10.50;99.90;;;;;;5093564;28;20100;-82
2023/05/28 01:41:26;;;;;;;5.30;1.70;;;10.50;99.90;;;;;;5073499;28;20044;-81
2023/05/28 01:43:53;;;;;;;6.05;1.60;;;10.50;99.90;;;;;;5093322;28;20399;-81
2023/05/28 01:46:20;;;;;;;5.32;1.35;;;10.80;99.90;;;;;;5093185;28;20052;-81
2023/05/28 01:48:46;;;;;;;2.22;1.17;;;10.50;99.90;;;;;;5076035;28;20068;-83
2023/05/28 01:51:16;;;;;;;6.07;1.75;;;10.50;99.90;;;;;;5073236;28;20048;-82
2023/05/28 01:53:42;;;;;;;2.53;1.73;;;10.50;99.90;;;;;;5072922;28;20114;-82
2023/05/28 01:56:07;;;;;;;5.47;1.40;;;10.50;99.90;;;;;;5073037;28;20052;-84
2023/05/28 01:58:33;;;;;;;6.80;1.52;;;10.50;99.90;;;;;;5072789;28;20047;-81
2023/05/28 02:01:23;;;;;;;7.45;1.77;;;10.50;99.90;;;;;;5072960;28;20105;-82
2023/05/28 02:03:49;;;;;;;4.38;1.40;;;10.50;99.90;;;;;;5055025;28;20058;-82
2023/05/28 02:06:15;;;;;;;3.58;1.50;;;10.50;99.90;;;;;;5055858;28;20048;-82
2023/05/28 02:08:40;;;;;;;6.68;1.27;;;10.50;99.90;;;;;;5055001;28;20048;-81
2023/05/28 02:11:06;;;;;;;3.65;1.23;;;11.00;99.90;;;;;;5072883;28;20044;-82
2023/05/28 02:13:31;;;;;;;3.42;1.33;;;10.60;99.90;;;;;;5072461;28;20047;-85
2023/05/28 02:15:57;;;;;;;3.40;1.60;;;10.80;99.90;;;;;;5071002;28;20516;-83
2023/05/28 02:18:23;;;;;;;2.80;1.10;;;10.70;99.90;;;;;;5074057;28;20439;-82
2023/05/28 02:20:48;;;;;;;5.70;1.67;;;10.60;99.90;;;;;;5092889;28;20066;-82
2023/05/28 02:23:14;;;;;;;3.75;1.45;;;10.50;99.90;;;;;;5093143;28;20067;-82
2023/05/28 02:25:40;;;;;;;5.00;1.70;;;10.90;99.90;;;;;;5092551;28;20044;-82
2023/05/28 02:28:05;;;;;;;7.72;1.90;;;10.60;99.90;;;;;;5088180;28;20120;-81
2023/05/28 02:30:31;;;;;;;5.90;1.65;;;10.30;99.90;;;;;;5072467;28;20041;-81
2023/05/28 02:32:57;;;;;;;2.97;1.17;;;10.30;99.90;;;;;;5073016;28;20045;-81
2023/05/28 02:35:23;;;;;;;5.30;1.55;;;10.40;99.90;;;;;;5073062;28;20028;-81
2023/05/28 02:37:49;;;;;;;5.57;1.60;;;10.30;99.90;;;;;;5073910;28;20048;-83
2023/05/28 02:40:15;;;;;;;5.43;1.67;;;10.60;99.90;;;;;;5072501;28;20044;-81
2023/05/28 02:42:41;;;;;;;7.70;1.80;;;10.40;99.90;;;;;;5073438;28;20552;-81
2023/05/28 02:45:07;;;;;;;6.72;1.73;;;10.30;99.90;;;;;;5073446;28;20131;-82
2023/05/28 02:47:32;;;;;;;7.22;2.20;;;10.30;99.90;;;;;;5072654;28;20051;-82
2023/05/28 02:49:58;;;;;;;7.57;1.98;;;10.30;99.90;;;;;;5073939;28;20393;-82
2023/05/28 02:52:23;;;;;;;4.40;1.30;;;10.30;99.90;;;;;;5091323;28;20044;-82
2023/05/28 02:54:49;;;;;;;5.78;1.83;;;10.30;99.90;;;;;;5073627;28;20048;-81
2023/05/28 02:57:15;;;;;;;4.88;1.73;;;10.20;99.90;;;;;;5090942;28;20028;-81
2023/05/28 02:59:40;;;;;;;4.13;1.52;;;10.30;99.90;;;;;;5072568;28;20494;-81
2023/05/28 03:02:06;;;;;;;9.20;2.10;;;10.30;99.90;;;;;;5091967;28;20044;-82
2023/05/28 03:04:32;;;;;;;3.67;1.70;;;10.30;99.90;;;;;;5092560;28;20040;-83
2023/05/28 03:06:58;;;;;;;4.78;1.60;;;10.60;99.90;;;;;;5092276;28;20127;-82
2023/05/28 03:09:23;;;;;;;4.13;2.15;;;10.70;99.90;;;;;;5092345;28;20048;-82
2023/05/28 03:11:49;;;;;;;4.22;1.40;;;10.30;99.90;;;;;;5073447;28;20040;-82
2023/05/28 03:14:15;;;;;;;6.75;1.50;;;10.30;99.90;;;;;;5072135;28;20040;-83
2023/05/28 03:16:41;;;;;;;4.07;1.25;;;10.20;99.90;;;;;;5072719;28;20046;-81
2023/05/28 03:19:06;;;;;;;4.97;2.15;;;10.20;99.90;;;;;;5072138;28;20143;-84
2023/05/28 03:21:32;;;;;;;4.07;1.45;;;10.20;99.90;;;;;;5072913;28;20134;-81
2023/05/28 03:23:58;;;;;;;6.40;1.60;;;10.20;99.90;;;;;;5072066;28;20079;-81
2023/05/28 03:26:23;;;;;;;7.15;1.80;;;10.20;99.90;;;;;;5080748;28;20411;-82
2023/05/28 03:28:49;;;;;;;5.28;1.77;;;10.10;99.90;;;;;;5095804;28;20555;-80
2023/05/28 03:31:14;;;;;;;4.43;1.60;;;10.50;99.90;;;;;;5092907;28;20039;-81
2023/05/28 03:33:40;;;;;;;5.80;1.60;;;10.10;99.90;;;;;;5075587;28;20397;-80
2023/05/28 03:36:06;;;;;;;5.85;1.63;;;10.10;99.90;;;;;;5075690;28;20389;-82
2023/05/28 03:38:32;;;;;;;2.92;1.42;;;10.10;99.90;;;;;;5075782;28;20953;-81
2023/05/28 03:40:58;;;;;;;4.85;1.77;;;10.00;99.90;;;;;;5075668;28;20048;-82
2023/05/28 03:43:24;;;;;;;4.88;1.65;;;10.20;99.90;;;;;;5080257;28;20431;-80
2023/05/28 03:45:50;;;;;;;7.60;2.40;;;10.20;99.90;;;;;;5095193;28;20040;-81
2023/05/28 03:48:16;;;;;;;4.55;1.85;;;10.00;99.90;;;;;;5095667;28;20051;-81
2023/05/28 03:50:41;;;;;;;5.18;1.75;;;10.10;99.90;;;;;;5095494;28;20040;-81
2023/05/28 03:53:07;;;;;;;7.50;2.17;;;10.10;99.90;;;;;;5093691;28;20408;-81
2023/05/28 03:55:35;;;;;;;5.70;1.70;;;10.10;99.90;;;;;;5077269;28;20044;-82
2023/05/28 03:58:00;;;;;;;4.65;1.90;;;10.50;99.90;;;;;;5094264;28;20044;-81
2023/05/28 04:00:26;;;;;;;6.10;1.50;;;10.10;99.90;;;;;;5079268;28;20056;-81
2023/05/28 04:02:51;;;;;;;4.95;1.55;;;10.10;99.90;;;;;;5057479;28;20044;-81
2023/05/28 04:05:17;;;;;;;5.13;1.10;;;10.10;99.90;;;;;;5076013;28;20528;-81
2023/05/28 04:07:43;;;;;;;3.85;1.75;;;10.10;99.90;;;;;;5057318;28;20041;-81
2023/05/28 04:10:09;;;;;;;4.93;1.40;;;10.10;99.90;;;;;;5075093;28;20072;-81
2023/05/28 04:12:34;;;;;;;8.60;1.88;;;10.10;99.90;;;;;;5075174;28;20101;-81
2023/05/28 04:15:00;;;;;;;5.72;2.05;;;10.10;99.90;;;;;;5076699;28;20455;-82
2023/05/28 04:17:27;;;;;;;5.50;1.85;;;10.10;99.90;;;;;;5056878;28;20044;-81
2023/05/28 04:19:56;;;;;;;4.93;1.45;;;10.10;99.90;;;;;;5074694;28;20072;-82
2023/05/28 04:22:23;;;;;;;4.28;1.50;;;10.10;99.90;;;;;;5074527;28;20037;-81
2023/05/28 04:24:51;;;;;;;5.75;1.75;;;10.20;99.90;;;;;;5075696;28;20439;-81
2023/05/28 04:27:17;;;;;;;5.97;1.55;;;10.20;99.90;;;;;;5074566;28;20493;-85
2023/05/28 04:29:43;;;;;;;7.55;1.90;;;10.30;99.90;;;;;;5068537;28;20051;-82
2023/05/28 04:32:09;;;;;;;3.50;1.38;;;10.20;99.90;;;;;;5094796;28;20048;-81
2023/05/28 04:34:37;;;;;;;4.95;1.50;;;10.30;99.90;;;;;;5076649;28;20052;-82
2023/05/28 04:37:04;;;;;;;5.68;1.92;;;10.80;99.90;;;;;;5093100;28;20491;-82
2023/05/28 04:39:30;;;;;;;7.53;1.75;;;10.40;99.90;;;;;;5094039;28;20052;-81
2023/05/28 04:41:55;;;;;;;5.95;2.15;;;10.40;99.90;;;;;;5094618;28;20040;-81
2023/05/28 04:44:25;;;;;;;5.75;1.80;;;10.40;99.90;;;;;;5094579;28;20036;-82
2023/05/28 04:46:51;;;;;;;9.45;2.40;;;10.50;99.90;;;;;;5074726;28;20419;-82
2023/05/28 04:49:17;;;;;;;5.05;1.55;;;10.50;99.90;;;;;;5090853;28;20089;-81
2023/05/28 04:51:43;;;;;;;8.77;2.10;;;10.60;99.90;;;;;;5074212;28;20056;-82
2023/05/28 04:54:08;;;;;;;8.27;2.20;;;10.60;99.90;;;;;;5039596;28;20036;-83
2023/05/28 04:56:36;;;;;;;5.10;1.77;;;10.90;99.90;;;;;;5074072;28;20517;-81
2023/05/28 04:59:04;;;;;;;3.42;1.60;;;10.60;99.90;;;;;;5075118;28;20095;-82
2023/05/28 05:01:33;;;;;;;9.27;2.40;;;11.00;99.90;;;;;;5085709;28;20093;-82
2023/05/28 05:03:59;;;;;;;8.40;2.17;;;10.90;99.90;;;;;;5094034;28;20044;-82
2023/05/28 05:06:25;;;;;;;9.88;2.45;;;10.90;99.90;;;;;;5094375;28;20519;-82
2023/05/28 05:08:50;;;;;;;5.40;1.77;;;11.10;99.90;;;;;;5090979;28;20050;-81
2023/05/28 05:11:16;;;;;;;8.75;1.92;;;11.20;99.90;;;;;;5073817;28;20039;-83
2023/05/28 05:13:42;;;;;;;6.78;1.92;;;11.60;99.90;;;;;;5073859;28;20062;-82
2023/05/28 05:16:08;;;;;;;7.10;1.95;;;11.40;99.90;;;;;;5073775;28;20041;-84
2023/05/28 05:18:33;;;;;;;6.93;1.83;;;11.50;99.90;;;;;;5074554;28;20115;-82
2023/05/28 05:21:00;;;;;;;5.80;1.95;;;11.60;99.90;;;;;;5073869;28;20427;-83
2023/05/28 05:23:26;;;;;;;4.57;1.63;;;11.70;99.90;;;;;;5055612;28;20094;-83
2023/05/28 05:25:52;;;;;;;5.38;1.75;;;11.80;99.90;;;;;;5073486;28;20178;-83
2023/05/28 05:28:17;;;;;;;7.13;1.98;;;12.10;99.90;;;;;;5073256;28;20135;-84
2023/05/28 05:30:43;;;;;;;7.32;2.33;;;12.00;99.90;;;;;;5057573;28;20037;-86
2023/05/28 05:33:09;;;;;;;7.93;2.58;;;12.10;99.90;;;;;;5073439;28;20048;-84
2023/05/28 05:35:35;;;;;;;10.60;2.35;;;12.20;99.90;;;;;;5073328;28;20372;-85
2023/05/28 05:38:00;;;;;;;4.97;1.85;;;12.60;99.90;;;;;;5073501;28;20037;-83
2023/05/28 05:40:27;;;;;;;10.30;2.75;;;12.70;99.90;;;;;;5073505;28;20037;-81
2023/05/28 05:42:53;;;;;;;9.18;2.92;;;12.60;99.90;;;;;;5077086;28;20400;-86
2023/05/28 05:45:18;;;;;;;10.45;2.90;;;12.70;99.90;;;;;;5093375;28;20040;-86
2023/05/28 05:47:44;;;;;;;9.32;2.42;;;12.90;99.90;;;;;;5091517;28;20032;-87
2023/05/28 05:50:13;;;;;;;9.70;2.05;;;13.00;99.90;;;;;;5055390;28;20048;-84
2023/05/28 05:52:40;;;;;;;15.10;2.92;;;13.10;99.90;;;;;;5070851;28;20063;-86
2023/05/28 05:55:07;;;;;;;10.65;2.67;;;13.10;99.90;;;;;;5073019;28;20045;-86
2023/05/28 05:57:33;;;;;;;5.90;2.80;;;13.20;99.90;;;;;;5073123;28;20131;-85
2023/05/28 05:59:59;;;;;;;10.57;3.38;;;13.30;99.90;;;;;;5072670;28;20044;-86
2023/05/28 06:02:25;;;;;;;6.53;2.20;;;13.40;99.90;;;;;;5070555;28;20060;-87
2023/05/28 06:04:51;;;;;;;11.85;2.85;;;13.50;99.90;;;;;;5071933;28;20032;-83
2023/05/28 06:07:17;;;;;;;8.82;1.95;;;13.50;99.90;;;;;;5072559;28;20047;-84
2023/05/28 06:09:43;;;;;;;15.20;2.40;;;13.60;99.90;;;;;;5073417;28;20040;-85
2023/05/28 06:12:08;;;;;;;7.82;1.95;;;13.70;99.90;;;;;;5074464;28;20485;-84
2023/05/28 06:14:35;;;;;;;9.30;1.95;;;13.80;99.90;;;;;;5068691;28;20037;-86
2023/05/28 06:17:01;;;;;;;6.88;1.83;;;13.90;99.90;;;;;;5072819;28;20041;-87
2023/05/28 06:19:27;;;;;;;9.80;2.08;;;13.90;99.90;;;;;;5061503;28;20393;-85
2023/05/28 06:21:53;;;;;;;8.68;2.03;;;14.00;99.90;;;;;;5074556;28;20044;-83
2023/05/28 06:24:19;;;;;;;6.85;1.80;;;14.00;99.90;;;;;;5073826;28;20116;-86
2023/05/28 06:26:45;;;;;;;6.90;1.73;;;14.10;99.90;;;;;;5055002;28;20131;-84
2023/05/28 06:29:10;;;;;;;5.63;1.85;;;14.20;99.90;;;;;;5053933;28;20074;-88
2023/05/28 06:31:36;;;;;;;8.10;2.17;;;14.20;99.90;;;;;;5067315;28;20479;-86
2023/05/28 06:34:02;;;;;;;13.43;2.33;;;14.20;99.90;;;;;;5061738;28;20396;-87
2023/05/28 06:36:28;;;;;;;6.03;1.67;;;14.30;99.90;;;;;;5070135;28;20097;-87
2023/05/28 06:38:54;;;;;;;9.45;1.70;;;14.20;99.90;;;;;;5071574;28;20432;-86
2023/05/28 06:41:21;;;;;;;5.85;2.30;;;14.30;99.90;;;;;;5072661;28;20048;-86
2023/05/28 06:43:47;;;;;;;9.32;2.08;;;14.20;99.90;;;;;;5072849;28;20044;-86
2023/05/28 06:46:13;;;;;;;9.18;1.95;;;14.30;99.90;;;;;;5068273;28;20049;-84
2023/05/28 06:48:39;;;;;;;6.30;2.17;;;14.40;99.90;;;;;;5071378;28;20052;-83
2023/05/28 06:51:05;;;;;;;9.73;2.00;;;14.60;99.90;;;;;;5072396;28;20536;-86
2023/05/28 06:53:30;;;;;;;7.43;2.10;;;14.70;99.90;;;;;;5087738;28;20058;-85
2023/05/28 06:55:57;;;;;;;9.15;2.05;;;14.70;99.90;;;;;;5072159;28;20047;-86
2023/05/28 06:58:23;;;;;;;5.22;1.70;;;14.90;99.90;;;;;;5074076;28;20102;-83
2023/05/28 07:00:48;;;;;;;5.25;1.23;;;15.00;99.90;;;;;;5093364;28;20040;-83
2023/05/28 07:03:14;;;;;;;2.80;1.23;;;15.10;99.90;;;;;;5096815;28;20085;-85
2023/05/28 07:05:39;;;;;;;5.70;1.30;;;15.10;99.90;;;;;;5076455;28;20059;-82
2023/05/28 07:08:06;;;;;;;7.30;1.45;;;15.20;99.90;;;;;;5095876;28;20094;-82
2023/05/28 07:10:31;;;;;;;7.97;1.85;;;15.20;99.90;;;;;;5096414;28;20541;-81
2023/05/28 07:12:57;;;;;;;4.97;1.25;;;15.10;99.90;;;;;;5096701;28;20056;-85
2023/05/28 07:15:23;;;;;;;3.42;1.17;;;15.30;99.90;;;;;;5096078;28;20396;-85
2023/05/28 07:17:48;;;;;;;6.15;1.40;;;15.40;99.90;;;;;;5082310;28;20494;-86
2023/05/28 07:20:16;;;;;;;4.88;1.20;;;15.40;99.90;;;;;;5075934;28;20047;-86
2023/05/28 07:22:41;;;;;;;4.25;1.10;;;15.30;99.90;;;;;;5058338;28;20044;-86
2023/05/28 07:25:08;;;;;;;5.22;1.52;;;15.50;99.90;;;;;;5076007;28;20040;-86
2023/05/28 07:27:33;;;;;;;3.65;1.35;;;15.60;99.90;;;;;;5076631;28;20040;-83
2023/05/28 07:29:59;;;;;;;2.03;0.90;;;15.70;99.90;;;;;;5090383;28;20177;-86
2023/05/28 07:32:25;;;;;;;5.80;1.73;;;16.10;99.90;;;;;;5096086;28;20054;-86
2023/05/28 07:34:51;;;;;;;4.40;1.30;;;16.20;99.90;;;;;;5095926;28;20040;-86
2023/05/28 07:37:16;;;;;;;4.65;1.40;;;16.30;99.90;;;;;;5095728;28;20040;-86
2023/05/28 07:39:42;;;;;;;3.65;1.30;;;16.40;99.90;;;;;;5067066;28;20434;-85
2023/05/28 07:42:08;;;;;;;3.95;1.25;;;16.50;99.90;;;;;;5095301;28;20060;-87
2023/05/28 07:44:34;;;;;;;6.07;1.60;;;16.60;99.90;;;;;;5094872;28;20094;-87
2023/05/28 07:46:59;;;;;;;3.83;1.45;;;16.70;99.90;;;;;;5095606;28;20058;-85
2023/05/28 07:49:25;;;;;;;5.25;1.45;;;16.70;99.90;;;;;;5093624;28;20040;-86
2023/05/28 07:51:51;;;;;;;7.07;2.47;;;16.80;99.90;;;;;;5095269;28;20047;-87
2023/05/28 07:54:17;;;;;;;6.03;2.17;;;16.80;99.90;;;;;;5095479;28;20579;-85
2023/05/28 07:56:42;;;;;;;5.50;2.05;;;16.80;99.90;;;;;;5059913;28;20123;-87
2023/05/28 07:59:08;;;;;;;10.30;2.15;;;16.90;99.90;;;;;;5076454;28;20135;-84
2023/05/28 08:01:34;;;;;;;7.82;1.90;;;16.80;99.90;;;;;;5085360;28;20031;-87
2023/05/28 08:04:00;;;;;;;4.72;1.70;;;16.80;99.90;;;;;;5095481;28;20447;-83
2023/05/28 08:06:26;;;;;;;8.13;2.13;;;16.70;99.90;;;;;;5095367;28;20177;-85
2023/05/28 08:08:52;;;;;;;8.00;2.38;;;16.90;99.90;;;;;;5077090;28;20123;-85
2023/05/28 08:11:18;;;;;;;9.80;1.52;;;16.90;99.90;;;;;;5071280;28;20059;-87
2023/05/28 08:13:43;;;;;;;7.20;2.42;;;17.00;99.90;;;;;;5057050;28;20040;-83
2023/05/28 08:16:12;;;;;;;4.07;1.38;;;17.10;99.90;;;;;;5074784;28;20033;-81
2023/05/28 08:18:39;;;;;;;7.78;2.38;;;17.30;99.90;;;;;;5075126;28;20048;-82
2023/05/28 08:21:06;;;;;;;8.10;1.92;;;17.50;99.90;;;;;;5056970;28;20044;-82
2023/05/28 08:23:34;;;;;;;4.45;2.00;;;17.30;99.90;;;;;;5057966;28;20055;-82
2023/05/28 08:26:03;;;;;;;5.18;2.20;;;17.40;99.90;;;;;;5074627;28;20123;-84
2023/05/28 08:28:29;;;;;;;6.63;2.17;;;17.50;99.90;;;;;;5056623;28;20104;-86
2023/05/28 08:30:55;;;;;;;5.03;2.08;;;17.40;99.90;;;;;;5056623;28;20132;-86
2023/05/28 08:33:22;;;;;;;3.55;1.88;;;17.40;99.90;;;;;;5057453;28;20074;-85
2023/05/28 08:35:47;;;;;;;6.35;3.33;;;17.50;99.90;;;;;;5074325;28;20088;-81
2023/05/28 08:38:13;;;;;;;6.85;2.28;;;17.70;99.90;;;;;;5074440;28;20088;-82
2023/05/28 08:40:43;;;;;;;4.13;1.67;;;17.70;99.90;;;;;;5084005;28;20127;-83
2023/05/28 08:43:08;;;;;;;4.93;1.67;;;17.80;99.90;;;;;;5093033;28;20080;-86
2023/05/28 08:45:35;;;;;;;8.73;2.30;;;18.00;99.90;;;;;;5094169;28;20094;-87
2023/05/28 08:48:01;;;;;;;4.93;1.73;;;18.00;99.90;;;;;;5094249;28;20119;-85
2023/05/28 08:50:28;;;;;;;6.85;2.42;;;18.30;99.90;;;;;;5094444;28;20083;-83
2023/05/28 08:52:56;;;;;;;8.90;2.78;;;18.50;99.90;;;;;;5092145;28;20056;-84
2023/05/28 08:55:21;;;;;;;6.68;2.33;;;18.40;99.90;;;;;;5040779;28;20068;-86
2023/05/28 08:57:47;;;;;;;7.40;2.83;;;18.50;99.90;;;;;;5056295;28;20087;-87
2023/05/28 09:00:13;;;;;;;10.23;3.08;;;18.60;99.90;;;;;;5074225;28;20492;-86
2023/05/28 09:02:39;;;;;;;7.78;3.05;;;18.50;99.70;;;;;;5073934;28;20124;-86
2023/05/28 09:05:06;;;;;;;8.52;2.60;;;18.60;98.00;;;;;;5075017;28;20032;-85
2023/05/28 09:07:32;;;;;;;6.30;3.10;;;18.70;99.90;;;;;;5055893;28;20055;-86
2023/05/28 09:09:58;;;;;;;6.53;3.17;;;18.50;99.90;;;;;;5094167;28;20052;-85
2023/05/28 09:12:24;;;;;;;7.60;2.70;;;18.70;99.70;;;;;;5094043;28;20377;-86
2023/05/28 09:14:52;;;;;;;6.78;2.50;;;18.40;99.80;;;;;;5093965;28;20052;-86
2023/05/28 09:17:33;;;;;;;10.30;2.53;;;18.60;98.80;;;;;;5073902;28;20062;-86
2023/05/28 09:20:04;;;;;;;7.00;3.17;;;18.80;98.70;;;;;;5093787;28;20040;-86
2023/05/28 09:22:31;;;;;;;7.55;2.60;;;18.70;99.00;;;;;;5092282;28;20480;-85
2023/05/28 09:24:59;;;;;;;6.00;2.63;;;18.80;99.60;;;;;;5075586;28;20075;-85
2023/05/28 09:27:27;;;;;;;8.48;3.00;;;18.80;97.50;;;;;;5080990;28;20126;-86
2023/05/28 09:29:53;;;;;;;4.95;2.55;;;18.80;98.50;;;;;;5073311;28;20048;-84
2023/05/28 09:32:20;;;;;;;6.88;2.97;;;19.10;96.60;;;;;;5073703;28;20132;-84
2023/05/28 09:34:48;;;;;;;5.80;2.80;;;19.20;98.00;;;;;;5073316;28;20067;-84
2023/05/28 09:37:16;;;;;;;5.60;2.38;;;19.00;95.90;;;;;;5074373;28;20055;-85
2023/05/28 09:39:41;;;;;;;6.05;3.13;;;19.30;98.00;;;;;;5073259;28;20477;-86
2023/05/28 09:42:09;;;;;;;5.47;2.10;;;19.40;97.00;;;;;;5081714;28;20058;-85
2023/05/28 09:44:37;;;;;;;5.85;3.10;;;19.40;95.70;;;;;;5075428;28;20040;-85
2023/05/28 09:47:21;;;;;;;5.35;2.63;;;19.70;95.70;;;;;;5093523;28;20126;-84
2023/05/28 09:49:49;;;;;;;7.70;2.55;;;20.10;95.90;;;;;;5092879;28;20036;-85
2023/05/28 09:52:22;;;;;;;7.03;2.47;;;20.10;96.90;;;;;;5068986;28;20063;-86
2023/05/28 09:54:55;;;;;;;5.43;2.70;;;20.20;95.30;;;;;;5056765;28;20048;-88
2023/05/28 09:57:33;;;;;;;5.35;2.65;;;20.20;93.50;;;;;;5065461;28;20131;-86
2023/05/28 10:04:05;;;;;;;6.13;2.50;;;20.00;92.40;;;;;;5093169;28;20047;-86
2023/05/28 10:06:32;;;;;;;6.07;1.90;;;20.10;93.60;;;;;;5067207;28;21165;-85
2023/05/28 10:09:00;;;;;;;4.15;1.73;;;20.20;91.60;;;;;;5072792;28;20052;-85
2023/05/28 10:11:29;;;;;;;3.15;1.40;;;20.10;91.10;;;;;;5060956;28;20416;-84
2023/05/28 10:13:56;;;;;;;3.58;1.35;;;19.80;91.10;;;;;;5074807;28;20051;-90
2023/05/28 10:16:23;;;;;;;4.70;1.40;;;19.80;91.20;;;;;;5059160;28;20123;-88
2023/05/28 10:18:50;;;;;;;4.03;1.63;;;20.10;91.70;;;;;;5093246;28;20043;-90
2023/05/28 10:21:19;;;;;;;4.40;1.50;;;20.40;93.70;;;;;;5084154;28;20371;-88
2023/05/28 10:23:46;;;;;;;4.50;1.70;;;20.20;90.90;;;;;;5072992;28;20045;-89
2023/05/28 10:26:14;;;;;;;6.95;1.73;;;20.20;93.50;;;;;;5079110;28;20123;-89
2023/05/28 10:28:40;;;;;;;3.85;1.08;;;20.30;93.30;;;;;;5075198;28;20048;-90
2023/05/28 10:31:08;;;;;;;5.18;1.38;;;20.40;90.50;;;;;;5093240;28;20055;-91
2023/05/28 10:33:44;;;;;;;2.70;1.42;;;20.50;91.90;;;;;;5092764;28;20515;-88
2023/05/28 10:36:14;;;;;;;4.32;1.45;;;20.30;90.50;;;;;;5091262;28;20131;-85
2023/05/28 10:38:59;;;;;;;4.72;1.40;;;20.40;91.20;;;;;;5090150;28;20037;-85
2023/05/28 10:41:25;;;;;;;8.65;1.23;;;20.70;92.50;;;;;;5072869;28;20032;-86
2023/05/28 10:43:52;;;;;;;6.43;1.73;;;20.50;92.90;;;;;;5072457;28;20058;-85
2023/05/28 10:46:34;;;;;;;4.75;1.30;;;20.60;94.20;;;;;;5075417;28;20603;-85
2023/05/28 10:49:08;;;;;;;5.95;1.13;;;20.60;93.80;;;;;;5054688;28;20090;-85
2023/05/28 10:51:57;;;;;;;10.35;1.60;;;20.60;93.20;;;;;;5047970;28;20054;-85
2023/05/28 10:54:40;;;;;;;4.05;1.33;;;20.50;94.40;;;;;;5067654;28;20044;-84
2023/05/28 10:57:07;;;;;;;2.88;1.25;;;20.50;94.20;;;;;;5071584;28;20469;-82
2023/05/28 10:59:51;;;;;;;4.22;1.00;;;20.70;95.50;;;;;;5072027;28;20049;-84
2023/05/28 11:02:25;;;;;;;6.00;1.88;;;20.60;95.80;;;;;;5072466;28;20044;-84
2023/05/28 11:04:53;;;;;;;4.78;1.40;;;20.80;96.60;;;;;;5082389;28;20040;-84
2023/05/28 11:07:20;;;;;;;4.22;1.50;;;20.80;96.50;;;;;;5073988;28;20127;-83
2023/05/28 11:09:51;;;;;;;5.82;1.40;;;20.50;97.50;;;;;;5061384;28;20048;-84
2023/05/28 11:12:19;;;;;;;4.93;1.65;;;20.40;96.40;;;;;;5054201;28;20049;-83
2023/05/28 11:14:45;;;;;;;2.75;1.00;;;20.60;97.40;;;;;;5072260;28;20381;-84
2023/05/28 11:17:12;;;;;;;3.55;1.27;;;20.70;97.10;;;;;;5058627;28;20040;-84
2023/05/28 11:19:45;;;;;;;3.97;1.13;;;20.90;97.00;;;;;;5071778;28;20047;-85
2023/05/28 11:22:13;;;;;;;3.95;1.55;;;20.80;96.00;;;;;;5085346;28;20055;-83
2023/05/28 11:25:05;;;;;;;5.70;1.38;;;20.70;96.40;;;;;;5053902;28;20037;-85
2023/05/28 11:27:33;;;;;;;4.47;1.50;;;20.70;97.50;;;;;;5053720;28;20447;-85
2023/05/28 11:30:00;;;;;;;5.97;2.03;;;20.90;97.20;;;;;;5081893;28;20036;-85
2023/05/28 11:32:32;;;;;;;5.07;1.52;;;20.90;97.60;;;;;;5072108;28;20059;-86
2023/05/28 11:34:58;;;;;;;3.28;1.23;;;20.70;97.20;;;;;;5086363;28;20047;-84
2023/05/28 11:37:26;;;;;;;5.30;1.75;;;20.80;97.20;;;;;;5081587;28;20463;-84
2023/05/28 11:39:53;;;;;;;5.95;1.45;;;20.50;97.00;;;;;;5075278;28;20036;-85
2023/05/28 11:42:20;;;;;;;7.00;1.70;;;20.70;97.90;;;;;;5090590;28;20098;-84
2023/05/28 11:44:49;;;;;;;7.05;2.10;;;20.80;97.80;;;;;;5073933;28;20066;-86
2023/05/28 11:47:15;;;;;;;5.10;1.80;;;20.40;97.30;;;;;;5075445;28;20109;-85
2023/05/28 11:49:42;;;;;;;5.50;1.30;;;20.10;98.70;;;;;;5095236;28;20032;-85
2023/05/28 11:52:18;;;;;;;6.50;1.92;;;20.40;99.10;;;;;;5075157;28;20096;-85
2023/05/28 11:54:46;;;;;;;5.32;1.50;;;20.60;99.00;;;;;;5095932;28;20455;-87
2023/05/28 11:57:26;;;;;;;7.13;2.33;;;20.70;99.70;;;;;;5095545;28;20447;-85
2023/05/28 12:00:00;;;;;;;4.43;1.80;;;20.60;99.50;;;;;;5077040;28;20385;-87
2023/05/28 12:02:26;;;;;;;6.68;1.48;;;20.80;99.90;;;;;;5075404;28;20135;-86
2023/05/28 12:05:01;;;;;;;5.70;1.88;;;20.90;99.90;;;;;;5094468;28;20534;-84
2023/05/28 12:07:32;;;;;;;4.90;1.30;;;21.10;99.90;;;;;;5077172;28;20098;-85
2023/05/28 12:10:22;;;;;;;6.90;1.60;;;20.80;98.10;;;;;;5095285;28;20515;-85
2023/05/28 12:12:53;;;;;;;6.22;1.73;;;20.60;99.90;;;;;;5085556;28;20409;-84
2023/05/28 12:15:24;;;;;;;5.70;1.25;;;20.50;99.00;;;;;;5074976;28;20032;-84
2023/05/28 12:17:58;;;;;;;7.85;1.70;;;20.80;98.80;;;;;;5075057;28;20500;-84
2023/05/28 12:20:23;;;;;;;5.20;1.17;;;20.30;98.90;;;;;;5074786;28;20481;-86
2023/05/28 12:23:07;;;;;;;9.02;2.05;;;20.40;99.20;;;;;;5057615;28;20040;-86
2023/05/28 12:25:47;;;;;;;6.10;1.50;;;20.60;99.90;;;;;;5057036;28;20049;-87
2023/05/28 12:28:15;;;;;;;3.97;1.20;;;20.30;99.40;;;;;;5056898;28;20153;-85
2023/05/28 12:30:42;;;;;;;10.90;1.20;;;20.10;99.60;;;;;;5074585;28;20044;-84
2023/05/28 12:33:10;;;;;;;6.40;1.08;;;20.30;98.80;;;;;;5078263;28;20051;-86
2023/05/28 12:35:35;;;;;;;7.10;1.77;;;20.10;98.80;;;;;;5084883;28;20041;-84
2023/05/28 12:38:02;;;;;;;5.05;1.40;;;20.30;99.90;;;;;;5075936;28;20047;-84
2023/05/28 12:40:28;;;;;;;10.88;2.17;;;20.30;99.50;;;;;;5074468;28;20048;-83
2023/05/28 12:42:53;;;;;;;7.22;1.40;;;20.50;99.30;;;;;;5074443;28;20050;-84
2023/05/28 12:45:19;;;;;;;6.85;1.77;;;20.60;97.80;;;;;;5075226;28;20056;-84
2023/05/28 12:47:45;;;;;;;4.95;1.38;;;20.50;98.50;;;;;;5074335;28;20072;-87
2023/05/28 12:50:11;;;;;;;5.80;1.40;;;20.60;97.90;;;;;;5074399;28;20045;-87